createdAt,value
2023-01-02T00:04:52.745Z,6.10
2023-01-02T00:09:57.900Z,6.20
2023-01-02T00:15:01.419Z,5.80
2023-01-02T00:20:07.660Z,6.90
2023-01-02T00:25:12.629Z,7.10
2023-01-02T00:30:16.037Z,7.00
2023-01-02T00:35:19.551Z,9.53
2023-01-02T00:40:24.353Z,9.50
2023-01-02T00:45:27.783Z,8.73
2023-01-02T00:50:31.487Z,7.23
2023-01-02T00:55:36.220Z,7.70
2023-01-02T01:00:40.339Z,7.07
2023-01-02T01:05:44.124Z,7.67
2023-01-02T01:10:48.944Z,7.70
2023-01-02T01:15:52.426Z,7.43
2023-01-02T01:20:55.864Z,8.63
2023-01-02T01:26:00.701Z,8.27
2023-01-02T01:31:04.818Z,8.00
2023-01-02T01:36:10.477Z,8.60
2023-01-02T01:41:22.664Z,7.87
2023-01-02T01:46:31.272Z,7.50
2023-01-02T01:51:40.126Z,7.53
2023-01-02T01:56:50.379Z,8.27
2023-01-02T02:01:54.155Z,8.77
2023-01-02T02:06:57.910Z,8.30
2023-01-02T02:12:03.719Z,8.83
2023-01-02T02:17:18.354Z,9.20
2023-01-02T02:22:43.364Z,9.27
2023-01-02T02:28:21.320Z,9.37
2023-01-02T02:33:36.952Z,9.40
2023-01-02T02:38:53.312Z,9.87
2023-01-02T02:44:05.119Z,10.33
2023-01-02T02:49:21.298Z,10.13
2023-01-02T02:54:32.775Z,10.70
2023-01-02T02:59:37.952Z,10.03
2023-01-02T03:04:44.164Z,10.30
2023-01-02T03:09:56.618Z,10.97
2023-01-02T03:15:11.365Z,10.20
2023-01-02T03:20:21.066Z,10.07
2023-01-02T03:25:26.264Z,9.53
2023-01-02T03:30:34.977Z,9.60
2023-01-02T03:35:43.838Z,10.27
2023-01-02T03:40:52.252Z,10.10
2023-01-02T03:46:05.595Z,9.60
2023-01-02T03:51:11.546Z,10.60
2023-01-02T03:56:23.735Z,10.90
2023-01-02T04:01:33.864Z,12.37
2023-01-02T04:06:44.089Z,11.40
2023-01-02T04:11:51.468Z,14.87
2023-01-02T04:16:56.800Z,24.87
2023-01-02T04:22:06.793Z,17.40
2023-01-02T04:27:15.471Z,14.10
2023-01-02T04:32:22.393Z,11.97
2023-01-02T04:37:36.105Z,10.97
2023-01-02T04:42:39.505Z,10.40
2023-01-02T04:47:43.009Z,11.17
2023-01-02T04:52:47.984Z,10.07
2023-01-02T04:57:51.380Z,10.80
2023-01-02T05:02:54.838Z,12.27
2023-01-02T05:08:00.817Z,12.53
2023-01-02T05:13:04.507Z,9.80
2023-01-02T05:18:08.031Z,10.30
2023-01-02T05:23:30.964Z,11.07
2023-01-02T05:28:38.535Z,10.40
2023-01-02T05:33:42.422Z,10.67
2023-01-02T05:38:47.246Z,11.53
2023-01-02T05:43:50.741Z,10.60
2023-01-02T05:48:54.278Z,10.00
2023-01-02T05:53:59.040Z,9.90
2023-01-02T05:59:02.433Z,10.57
2023-01-02T06:04:06.120Z,9.23
2023-01-02T06:09:15.308Z,9.67
2023-01-02T06:14:18.679Z,9.90
2023-01-02T06:19:22.287Z,8.90
2023-01-02T06:24:27.508Z,8.40
2023-01-02T06:29:32.275Z,7.57
2023-01-02T06:34:35.740Z,7.30
2023-01-02T06:39:40.842Z,7.20
2023-01-02T06:44:44.296Z,7.10
2023-01-02T06:49:47.754Z,6.90
2023-01-02T06:54:52.542Z,7.50
2023-01-02T06:59:55.936Z,7.20
2023-01-02T07:04:59.324Z,7.20
2023-01-02T07:10:04.748Z,6.70
2023-01-02T07:15:08.994Z,7.67
2023-01-02T07:20:13.365Z,6.73
2023-01-02T07:25:19.547Z,7.00
2023-01-02T07:30:22.935Z,6.80
2023-01-02T07:35:26.395Z,7.00
2023-01-02T07:40:32.414Z,6.90
2023-01-02T07:45:36.196Z,7.13
2023-01-02T07:50:39.734Z,7.27
2023-01-02T07:55:44.530Z,7.70
2023-01-02T08:00:48.032Z,7.60
2023-01-02T08:05:51.693Z,6.73
2023-01-02T08:10:56.615Z,6.30
2023-01-02T08:16:00.056Z,6.03
2023-01-02T08:21:04.021Z,5.77
2023-01-02T08:26:10.372Z,6.00
2023-01-02T08:31:16.088Z,5.80
2023-01-02T08:36:19.578Z,5.77
2023-01-02T08:41:34.782Z,6.53
2023-01-02T08:46:42.504Z,6.27
2023-01-02T08:51:46.242Z,6.63
2023-01-02T08:56:52.209Z,5.97
2023-01-02T09:01:56.317Z,5.43
2023-01-02T09:06:59.900Z,4.50
2023-01-02T09:12:05.133Z,4.80
2023-01-02T09:17:08.936Z,4.10
2023-01-02T09:22:12.780Z,3.80
2023-01-02T09:27:17.620Z,3.73
2023-01-02T09:32:21.496Z,3.53
2023-01-02T09:37:24.916Z,2.93
2023-01-02T09:42:29.804Z,3.20
2023-01-02T09:47:33.415Z,3.77
2023-01-02T09:52:41.449Z,3.60
2023-01-02T09:57:52.799Z,4.00
2023-01-02T10:03:08.272Z,3.23
2023-01-02T10:08:31.407Z,3.60
2023-01-02T10:19:13.020Z,3.57
2023-01-02T10:24:21.888Z,3.40
2023-01-02T10:29:31.789Z,3.70
2023-01-02T10:34:41.334Z,3.43
2023-01-02T10:39:46.715Z,3.73
2023-01-02T10:44:51.962Z,3.00
2023-01-02T10:49:55.996Z,3.33
2023-01-02T10:55:00.945Z,3.30
2023-01-02T11:00:08.799Z,3.07
2023-01-02T11:05:22.281Z,3.73
2023-01-02T11:10:28.961Z,3.30
2023-01-02T11:15:35.544Z,3.10
2023-01-02T11:20:39.545Z,3.15
2023-01-02T11:25:44.993Z,3.15
2023-01-02T11:30:52.848Z,2.75
2023-01-02T11:35:58.117Z,3.05
2023-01-02T11:41:03.354Z,2.97
2023-01-02T11:46:17.758Z,3.07
2023-01-02T11:51:23.404Z,3.10
2023-01-02T11:56:31.936Z,3.07
2023-01-02T12:01:52.990Z,2.70
2023-01-02T12:07:12.578Z,2.63
2023-01-02T12:12:37.253Z,2.80
2023-01-02T12:17:51.383Z,2.40
2023-01-02T12:23:15.412Z,2.50
2023-01-02T12:28:51.792Z,2.70
2023-01-02T12:34:07.841Z,3.00
2023-01-02T12:39:40.364Z,2.63
2023-01-02T12:44:51.747Z,3.17
2023-01-02T12:50:12.528Z,2.60
2023-01-02T12:55:29.109Z,2.90
2023-01-02T13:00:48.503Z,2.90
2023-01-02T13:05:58.131Z,2.63
2023-01-02T13:11:06.391Z,3.10
2023-01-02T13:16:24.790Z,3.07
2023-01-02T13:21:39.594Z,3.00
2023-01-02T13:26:43.741Z,3.50
2023-01-02T13:31:50.729Z,3.20
2023-01-02T13:37:03.252Z,3.00
2023-01-02T13:42:26.104Z,3.70
2023-01-02T13:47:34.854Z,3.30
2023-01-02T13:52:41.337Z,3.53
2023-01-02T13:57:44.728Z,3.73
2023-01-02T14:03:35.354Z,3.60
2023-01-02T14:08:42.441Z,3.90
2023-01-02T14:13:49.669Z,4.73
2023-01-02T14:19:16.707Z,5.90
2023-01-02T14:24:32.343Z,5.93
2023-01-02T14:29:49.017Z,7.53
2023-01-02T14:34:59.792Z,6.83
2023-01-02T14:40:39.129Z,7.47
2023-01-02T14:45:46.285Z,7.60
2023-01-02T14:50:50.599Z,6.97
2023-01-02T14:56:00.251Z,6.37
2023-01-02T15:01:05.897Z,6.13
2023-01-02T15:06:15.698Z,5.73
2023-01-02T15:11:40.661Z,4.97
2023-01-02T15:16:50.087Z,5.57
2023-01-02T15:21:55.588Z,6.10
2023-01-02T15:27:16.209Z,6.27
2023-01-02T15:32:21.805Z,7.10
2023-01-02T15:37:25.253Z,6.20
2023-01-02T15:42:47.543Z,6.50
2023-01-02T15:47:53.024Z,6.90
2023-01-02T15:53:01.741Z,7.30
2023-01-02T15:58:25.624Z,7.43
2023-01-02T16:04:02.676Z,6.97
2023-01-02T16:09:04.086Z,7.47
2023-01-02T16:14:20.759Z,7.23
2023-01-02T16:19:31.682Z,7.57
2023-01-02T16:24:37.003Z,7.47
2023-01-02T16:29:44.901Z,8.67
2023-01-02T16:35:00.699Z,7.97
2023-01-02T16:41:00.269Z,11.87
2023-01-02T16:46:10.264Z,9.80
2023-01-02T16:51:16.635Z,10.27
2023-01-02T16:56:20.119Z,9.60
2023-01-02T17:01:25.895Z,11.53
2023-01-02T17:06:29.626Z,9.07
2023-01-02T17:11:33.194Z,7.87
2023-01-02T17:16:38.137Z,8.20
2023-01-02T17:21:41.662Z,9.13
2023-01-02T17:26:45.428Z,16.33
2023-01-02T17:31:50.303Z,9.87
2023-01-02T17:36:57.209Z,10.90
2023-01-02T17:42:02.098Z,9.60
2023-01-02T17:47:48.217Z,9.87
2023-01-02T17:52:31.197Z,10.57
2023-01-02T17:57:38.991Z,9.97
2023-01-02T18:02:45.368Z,9.30
2023-01-02T18:07:49.163Z,9.03
2023-01-02T18:12:52.597Z,8.17
2023-01-02T18:18:00.646Z,7.73
2023-01-02T18:23:13.167Z,7.00
2023-01-02T18:28:24.221Z,7.23
2023-01-02T18:33:29.573Z,7.73
2023-01-02T18:38:38.373Z,7.77
2023-01-02T18:43:42.267Z,7.60
2023-01-02T18:48:47.731Z,8.83
2023-01-02T18:53:53.213Z,8.67
2023-01-02T18:59:03.297Z,8.87
2023-01-02T19:04:27.383Z,9.00
2023-01-02T19:09:35.639Z,9.73
2023-01-02T19:14:41.840Z,9.80
2023-01-02T19:19:49.704Z,8.93
2023-01-02T19:24:53.297Z,10.33
2023-01-02T19:29:57.019Z,9.50
2023-01-02T19:35:11.784Z,9.07
2023-01-02T19:40:19.705Z,9.40
2023-01-02T19:45:25.617Z,8.90
2023-01-02T19:50:30.550Z,9.17
2023-01-02T19:55:36.654Z,9.00
2023-01-02T20:00:40.257Z,8.63
2023-01-02T20:05:45.172Z,9.00
2023-01-02T20:10:48.958Z,8.67
2023-01-02T20:15:52.712Z,8.37
2023-01-02T20:20:57.857Z,7.90
2023-01-02T20:26:01.658Z,8.60
2023-01-02T20:31:05.522Z,8.43
2023-01-02T20:36:13.809Z,7.60
2023-01-02T20:41:17.525Z,7.73
2023-01-02T20:46:21.070Z,8.17
2023-01-02T20:51:25.873Z,7.80
2023-01-02T20:56:30.473Z,7.73
2023-01-02T21:01:34.070Z,8.10
2023-01-02T21:06:39.378Z,7.90
2023-01-02T21:11:42.931Z,7.73
2023-01-02T21:16:46.342Z,7.53
2023-01-02T21:21:52.147Z,8.63
2023-01-02T21:26:55.855Z,8.50
2023-01-02T21:31:59.319Z,8.73
2023-01-02T21:37:04.514Z,8.87
2023-01-02T21:42:17.085Z,7.70
2023-01-02T21:47:20.499Z,8.10
2023-01-02T21:52:25.419Z,8.27
2023-01-02T21:57:54.158Z,8.73
2023-01-02T22:02:53.846Z,9.03
2023-01-02T22:07:58.754Z,8.93
2023-01-02T22:13:02.180Z,9.10
2023-01-02T22:18:05.762Z,9.00
2023-01-02T22:23:10.587Z,9.07
2023-01-02T22:28:14.025Z,9.63
2023-01-02T22:33:17.627Z,9.80
2023-01-02T22:38:22.463Z,12.37
2023-01-02T22:43:26.166Z,9.53
2023-01-02T22:48:33.577Z,9.10
2023-01-02T22:53:39.570Z,10.37
2023-01-02T22:58:43.621Z,9.93
2023-01-02T23:03:48.644Z,9.80
2023-01-02T23:08:54.668Z,9.30
2023-01-02T23:13:58.058Z,9.97
2023-01-02T23:19:17.579Z,13.40
2023-01-02T23:24:25.487Z,11.00
2023-01-02T23:29:29.848Z,11.40
2023-01-02T23:34:33.332Z,11.53
2023-01-02T23:39:38.466Z,11.97
2023-01-02T23:44:42.223Z,10.40
2023-01-02T23:49:45.589Z,10.20
2023-01-02T23:54:50.415Z,11.27
2023-01-02T23:59:54.087Z,11.07
